createdAt,value
2023-04-06T00:02:07.937Z,5.45
2023-04-06T00:04:36.043Z,5.51
2023-04-06T00:07:04.024Z,5.42
2023-04-06T00:09:31.990Z,5.45
2023-04-06T00:12:01.338Z,5.38
2023-04-06T00:14:29.324Z,5.34
2023-04-06T00:16:57.982Z,5.26
2023-04-06T00:19:26.220Z,5.31
2023-04-06T00:21:54.291Z,5.24
2023-04-06T00:24:22.308Z,5.23
2023-04-06T00:26:50.283Z,5.32
2023-04-06T00:29:19.657Z,5.32
2023-04-06T00:31:47.746Z,5.31
2023-04-06T00:34:16.909Z,5.40
2023-04-06T00:36:44.927Z,5.35
2023-04-06T00:39:12.887Z,5.35
2023-04-06T00:41:41.152Z,5.35
2023-04-06T00:44:09.311Z,5.24
2023-04-06T00:46:38.801Z,5.16
2023-04-06T00:49:07.045Z,5.24
2023-04-06T00:51:35.219Z,5.24
2023-04-06T00:54:03.260Z,5.16
2023-04-06T00:56:31.211Z,5.09
2023-04-06T00:58:59.250Z,4.96
2023-04-06T01:01:27.425Z,4.88
2023-04-06T01:03:56.794Z,4.84
2023-04-06T01:06:24.813Z,4.85
2023-04-06T01:08:52.800Z,4.86
2023-04-06T01:11:20.887Z,4.78
2023-04-06T01:13:48.950Z,4.69
2023-04-06T01:16:16.969Z,4.54
2023-04-06T01:18:45.229Z,4.42
2023-04-06T01:21:16.675Z,4.34
2023-04-06T01:23:47.156Z,4.19
2023-04-06T01:26:15.187Z,4.17
2023-04-06T01:28:43.142Z,4.16
2023-04-06T01:31:11.465Z,4.18
2023-04-06T01:33:39.459Z,4.24
2023-04-06T01:36:08.070Z,4.33
2023-04-06T01:38:36.114Z,4.36
2023-04-06T01:41:05.822Z,4.42
2023-04-06T01:43:33.879Z,4.46
2023-04-06T01:46:01.883Z,4.57
2023-04-06T01:48:29.921Z,4.67
2023-04-06T01:50:57.929Z,4.67
2023-04-06T01:53:25.916Z,4.73
2023-04-06T01:55:53.916Z,4.79
2023-04-06T01:58:23.303Z,4.81
2023-04-06T02:00:51.381Z,4.83
2023-04-06T02:03:19.459Z,4.86
2023-04-06T02:05:47.477Z,4.89
2023-04-06T02:08:15.493Z,4.89
2023-04-06T02:10:43.456Z,4.90
2023-04-06T02:13:11.444Z,4.95
2023-04-06T02:15:40.823Z,4.97
2023-04-06T02:18:09.008Z,5.03
2023-04-06T02:20:37.026Z,5.04
2023-04-06T02:23:05.210Z,5.07
2023-04-06T02:25:33.468Z,5.08
2023-04-06T02:28:01.504Z,5.08
2023-04-06T02:30:30.180Z,5.13
2023-04-06T02:32:59.633Z,5.15
2023-04-06T02:35:27.760Z,5.19
2023-04-06T02:37:55.898Z,5.20
2023-04-06T02:40:23.909Z,5.14
2023-04-06T02:42:51.926Z,5.15
2023-04-06T02:45:19.893Z,5.23
2023-04-06T02:47:47.957Z,5.26
2023-04-06T02:50:17.484Z,5.27
2023-04-06T02:52:45.566Z,5.28
2023-04-06T02:55:13.634Z,5.28
2023-04-06T02:57:41.628Z,5.30
2023-04-06T03:00:10.715Z,5.29
2023-04-06T03:02:38.740Z,5.22
2023-04-06T03:05:07.313Z,5.27
2023-04-06T03:07:36.703Z,5.24
2023-04-06T03:10:05.004Z,5.19
2023-04-06T03:12:32.963Z,5.26
2023-04-06T03:15:00.966Z,5.17
2023-04-06T03:17:28.984Z,5.21
2023-04-06T03:19:56.990Z,5.29
2023-04-06T03:22:25.013Z,5.18
2023-04-06T03:24:54.399Z,5.28
2023-04-06T03:27:22.358Z,5.35
2023-04-06T03:29:50.331Z,5.15
2023-04-06T03:32:18.437Z,5.13
2023-04-06T03:34:46.413Z,5.23
2023-04-06T03:37:14.411Z,5.27
2023-04-06T03:39:42.465Z,5.33
2023-04-06T03:42:11.825Z,5.23
2023-04-06T03:44:39.786Z,5.22
2023-04-06T03:47:07.743Z,5.15
2023-04-06T03:49:35.944Z,5.30
2023-04-06T03:52:04.056Z,5.26
2023-04-06T03:54:32.052Z,5.32
2023-04-06T03:57:00.100Z,5.15
2023-04-06T03:59:29.521Z,5.17
2023-04-06T04:01:57.620Z,5.22
2023-04-06T04:04:25.839Z,5.23
2023-04-06T04:06:53.873Z,5.28
2023-04-06T04:09:21.902Z,5.35
2023-04-06T04:11:49.978Z,5.43
2023-04-06T04:14:17.989Z,5.43
2023-04-06T04:16:47.439Z,5.44
2023-04-06T04:19:15.433Z,5.47
2023-04-06T04:21:47.139Z,5.52
2023-04-06T04:24:15.255Z,5.58
2023-04-06T04:26:43.284Z,5.45
2023-04-06T04:29:11.280Z,5.46
2023-04-06T04:31:39.307Z,5.53
2023-04-06T04:34:08.900Z,5.67
2023-04-06T04:36:36.929Z,5.78
2023-04-06T04:39:05.005Z,5.85
2023-04-06T04:41:33.007Z,5.94
2023-04-06T04:44:01.006Z,5.90
2023-04-06T04:46:29.559Z,6.00
2023-04-06T04:48:57.857Z,6.01
2023-04-06T04:51:27.208Z,6.02
2023-04-06T04:53:55.238Z,5.91
2023-04-06T04:56:23.255Z,6.03
2023-04-06T04:58:51.945Z,6.16
2023-04-06T05:01:19.970Z,6.19
2023-04-06T05:03:48.298Z,6.26
2023-04-06T05:06:16.515Z,6.27
2023-04-06T05:08:45.906Z,6.20
2023-04-06T05:11:13.901Z,6.22
2023-04-06T05:13:41.901Z,6.29
2023-04-06T05:16:09.942Z,6.31
2023-04-06T05:18:37.952Z,6.41
2023-04-06T05:21:06.432Z,6.48
2023-04-06T05:23:34.403Z,6.35
2023-04-06T05:26:03.808Z,6.38
2023-04-06T05:28:32.022Z,6.51
2023-04-06T05:31:00.197Z,6.48
2023-04-06T05:33:28.519Z,6.71
2023-04-06T05:35:56.497Z,6.90
2023-04-06T05:38:24.615Z,6.95
2023-04-06T05:40:52.557Z,6.86
2023-04-06T05:43:23.259Z,6.92
2023-04-06T05:45:51.369Z,6.77
2023-04-06T05:48:19.378Z,6.70
2023-04-06T05:50:50.562Z,6.72
2023-04-06T05:53:18.526Z,6.72
2023-04-06T05:55:46.478Z,6.64
2023-04-06T05:58:14.521Z,6.81
2023-04-06T06:00:46.907Z,6.84
2023-04-06T06:03:16.253Z,6.96
2023-04-06T06:05:44.346Z,6.87
2023-04-06T06:08:12.436Z,7.02
2023-04-06T06:10:41.407Z,7.15
2023-04-06T06:13:09.477Z,7.33
2023-04-06T06:15:37.525Z,7.41
2023-04-06T06:18:07.384Z,7.78
2023-04-06T06:20:35.363Z,7.96
2023-04-06T06:23:04.136Z,8.13
2023-04-06T06:25:32.702Z,7.94
2023-04-06T06:28:00.707Z,7.78
2023-04-06T06:30:28.662Z,8.14
2023-04-06T06:32:56.795Z,8.26
2023-04-06T06:35:26.218Z,8.08
2023-04-06T06:37:54.192Z,7.96
2023-04-06T06:40:25.036Z,8.12
2023-04-06T06:42:53.331Z,8.09
2023-04-06T06:45:21.326Z,7.90
2023-04-06T06:47:49.445Z,8.04
2023-04-06T06:50:17.620Z,8.19
2023-04-06T06:52:47.115Z,8.20
2023-04-06T06:55:15.097Z,8.54
2023-04-06T06:57:43.523Z,8.85
2023-04-06T07:00:14.184Z,8.41
2023-04-06T07:02:42.265Z,8.45
2023-04-06T07:05:24.391Z,8.57
2023-04-06T07:07:56.774Z,8.30
2023-04-06T07:10:24.892Z,8.30
2023-04-06T07:12:53.025Z,8.56
2023-04-06T07:15:21.038Z,8.50
2023-04-06T07:17:49.066Z,8.63
2023-04-06T07:20:17.366Z,8.69
2023-04-06T07:22:45.513Z,8.79
2023-04-06T07:25:15.218Z,8.58
2023-04-06T07:27:43.325Z,8.88
2023-04-06T07:30:11.885Z,8.77
2023-04-06T07:32:40.123Z,8.78
2023-04-06T07:35:08.457Z,8.88
2023-04-06T07:37:36.515Z,9.05
2023-04-06T07:40:04.560Z,9.04
2023-04-06T07:42:34.280Z,9.25
2023-04-06T07:45:02.313Z,9.07
2023-04-06T07:47:30.501Z,8.90
2023-04-06T07:49:58.491Z,8.81
2023-04-06T07:52:26.617Z,8.92
2023-04-06T07:54:54.630Z,9.11
2023-04-06T07:57:22.627Z,9.26
2023-04-06T07:59:51.950Z,9.39
2023-04-06T08:02:19.978Z,9.52
2023-04-06T08:04:48.010Z,9.82
2023-04-06T08:07:16.050Z,9.80
2023-04-06T08:09:44.032Z,9.90
2023-04-06T08:12:11.990Z,10.02
2023-04-06T08:14:39.960Z,9.78
2023-04-06T08:17:09.345Z,9.89
2023-04-06T08:19:38.508Z,9.58
2023-04-06T08:22:06.496Z,9.72
2023-04-06T08:24:34.720Z,9.74
2023-04-06T08:27:02.773Z,9.65
2023-04-06T08:29:30.854Z,9.60
2023-04-06T08:31:58.906Z,9.52
2023-04-06T08:34:28.321Z,9.78
2023-04-06T08:36:56.316Z,10.10
2023-04-06T08:39:26.706Z,10.39
2023-04-06T08:41:57.970Z,10.64
2023-04-06T08:44:26.130Z,10.58
2023-04-06T08:46:54.474Z,10.55
2023-04-06T08:49:22.645Z,10.31
2023-04-06T08:51:52.215Z,9.99
2023-04-06T08:54:20.197Z,9.92
2023-04-06T08:56:48.212Z,9.99
2023-04-06T08:59:16.181Z,9.76
2023-04-06T09:01:44.277Z,9.59
2023-04-06T09:04:13.643Z,9.46
2023-04-06T09:06:42.213Z,9.70
2023-04-06T09:09:12.743Z,10.13
2023-04-06T09:11:45.506Z,10.20
2023-04-06T09:14:13.507Z,10.25
2023-04-06T09:16:42.357Z,10.05
2023-04-06T09:19:10.435Z,9.98
2023-04-06T09:21:38.497Z,10.10
2023-04-06T09:24:07.304Z,10.28
2023-04-06T09:26:46.622Z,10.42
2023-04-06T09:29:24.200Z,10.59
2023-04-06T09:31:52.218Z,10.63
2023-04-06T09:34:23.941Z,10.66
2023-04-06T09:36:53.153Z,10.96
2023-04-06T09:39:22.976Z,10.95
2023-04-06T09:41:53.073Z,11.19
2023-04-06T09:44:21.154Z,11.37
2023-04-06T09:46:58.801Z,11.58
2023-04-06T09:49:29.649Z,11.86
2023-04-06T09:51:59.648Z,11.92
2023-04-06T09:54:30.123Z,11.92
2023-04-06T09:57:03.365Z,12.21
2023-04-06T09:59:36.220Z,12.16
2023-04-06T10:02:04.196Z,12.39
2023-04-06T10:04:36.299Z,12.60
2023-04-06T10:07:04.401Z,13.05
2023-04-06T10:09:36.544Z,13.75
2023-04-06T10:12:07.260Z,14.28
2023-04-06T10:14:36.180Z,14.46
2023-04-06T10:17:04.640Z,14.68
2023-04-06T10:19:38.633Z,15.31
2023-04-06T10:22:06.612Z,15.72
2023-04-06T10:24:34.615Z,15.54
2023-04-06T10:27:03.849Z,15.29
2023-04-06T10:29:47.659Z,15.33
2023-04-06T10:32:15.684Z,15.40
2023-04-06T10:34:43.675Z,15.13
2023-04-06T10:37:19.977Z,15.03
2023-04-06T10:39:48.757Z,15.13
2023-04-06T10:42:16.715Z,15.40
2023-04-06T10:44:46.664Z,15.71
2023-04-06T10:47:20.924Z,15.84
2023-04-06T10:49:49.008Z,16.08
2023-04-06T10:52:17.005Z,15.78
2023-04-06T10:54:46.536Z,16.02
2023-04-06T10:57:16.118Z,16.13
2023-04-06T10:59:48.536Z,16.03
2023-04-06T11:02:23.059Z,15.59
2023-04-06T11:04:58.320Z,15.59
2023-04-06T11:07:27.851Z,15.78
2023-04-06T11:10:12.351Z,15.39
2023-04-06T11:12:42.320Z,15.32
2023-04-06T11:15:12.684Z,14.98
2023-04-06T11:17:40.952Z,14.71
2023-04-06T11:20:12.448Z,14.85
2023-04-06T11:22:50.567Z,14.59
2023-04-06T11:25:19.110Z,14.54
2023-04-06T11:27:47.830Z,14.56
2023-04-06T11:30:17.305Z,14.57
2023-04-06T11:32:46.075Z,14.88
2023-04-06T11:35:22.474Z,15.68
2023-04-06T11:37:51.063Z,16.61
2023-04-06T11:40:23.148Z,18.08
2023-04-06T11:42:54.823Z,18.04
2023-04-06T11:45:24.386Z,17.62
2023-04-06T11:47:58.257Z,17.25
2023-04-06T11:50:26.349Z,17.37
2023-04-06T11:53:00.501Z,18.09
2023-04-06T11:55:28.494Z,17.54
2023-04-06T11:57:56.789Z,17.73
2023-04-06T12:00:26.252Z,18.24
2023-04-06T12:02:54.258Z,18.68
2023-04-06T12:05:22.371Z,18.97
2023-04-06T12:07:50.388Z,19.09
2023-04-06T12:10:18.362Z,18.92
2023-04-06T12:12:46.625Z,17.66
2023-04-06T12:15:14.723Z,17.67
2023-04-06T12:17:44.329Z,17.07
2023-04-06T12:20:24.670Z,16.66
2023-04-06T12:22:54.292Z,16.26
2023-04-06T12:25:22.575Z,16.05
2023-04-06T12:27:50.932Z,15.61
2023-04-06T12:30:19.154Z,15.62
2023-04-06T12:32:51.104Z,15.36
2023-04-06T12:35:19.452Z,15.34
2023-04-06T12:37:47.484Z,15.35
2023-04-06T12:40:15.992Z,15.48
2023-04-06T12:42:44.036Z,15.06
2023-04-06T12:45:12.783Z,14.80
2023-04-06T12:47:41.068Z,14.63
2023-04-06T12:50:11.354Z,14.61
2023-04-06T12:52:39.324Z,14.80
2023-04-06T12:55:08.223Z,14.91
2023-04-06T12:57:36.373Z,14.92
2023-04-06T13:00:05.525Z,14.93
2023-04-06T13:02:35.135Z,15.06
2023-04-06T13:05:03.185Z,14.94
2023-04-06T13:07:32.530Z,15.08
2023-04-06T13:10:00.733Z,15.05
2023-04-06T13:12:28.721Z,14.72
2023-04-06T13:14:56.840Z,14.88
2023-04-06T13:17:24.897Z,15.12
2023-04-06T13:19:52.902Z,15.25
2023-04-06T13:22:20.865Z,15.48
2023-04-06T13:24:50.277Z,15.42
2023-04-06T13:27:18.278Z,15.82
2023-04-06T13:29:46.271Z,15.98
2023-04-06T13:32:14.512Z,15.84
2023-04-06T13:34:45.841Z,15.71
2023-04-06T13:37:14.566Z,15.53
2023-04-06T13:39:42.554Z,15.54
2023-04-06T13:42:12.209Z,15.48
2023-04-06T13:44:40.422Z,15.21
2023-04-06T13:47:08.518Z,15.21
2023-04-06T13:49:36.964Z,14.85
2023-04-06T13:52:05.149Z,14.70
2023-04-06T13:54:33.060Z,14.59
2023-04-06T13:57:01.884Z,14.43
2023-04-06T13:59:35.838Z,14.15
2023-04-06T14:02:04.004Z,14.41
2023-04-06T14:04:32.064Z,14.29
2023-04-06T14:07:00.000Z,14.20
2023-04-06T14:09:27.993Z,13.74
2023-04-06T14:11:55.971Z,14.09
2023-04-06T14:14:24.156Z,14.02
2023-04-06T14:16:53.506Z,13.92
2023-04-06T14:19:21.874Z,13.85
2023-04-06T14:21:49.867Z,13.52
2023-04-06T14:24:18.908Z,13.64
2023-04-06T14:26:47.462Z,13.48
2023-04-06T14:29:16.837Z,13.36
2023-04-06T14:31:44.861Z,13.27
2023-04-06T14:34:14.255Z,13.39
2023-04-06T14:36:42.267Z,13.29
2023-04-06T14:39:11.210Z,13.19
2023-04-06T14:41:39.262Z,13.16
2023-04-06T14:44:07.258Z,13.10
2023-04-06T14:46:35.353Z,12.99
2023-04-06T14:49:03.481Z,13.12
2023-04-06T14:51:32.827Z,13.20
2023-04-06T14:54:00.978Z,13.13
2023-04-06T14:56:28.940Z,13.09
2023-04-06T14:58:59.476Z,13.04
2023-04-06T15:01:27.487Z,12.91
2023-04-06T15:03:55.497Z,12.83
2023-04-06T15:06:23.506Z,12.70
2023-04-06T15:08:52.869Z,12.66
2023-04-06T15:11:21.146Z,12.72
2023-04-06T15:13:49.168Z,12.70
2023-04-06T15:16:17.196Z,12.74
2023-04-06T15:18:45.149Z,12.87
2023-04-06T15:21:13.274Z,12.88
2023-04-06T15:23:41.451Z,12.92
2023-04-06T15:26:10.810Z,12.91
2023-04-06T15:28:38.792Z,12.73
2023-04-06T15:31:20.709Z,12.46
2023-04-06T15:33:56.763Z,12.17
2023-04-06T15:36:27.199Z,11.78
2023-04-06T15:38:55.177Z,11.62
2023-04-06T15:41:24.452Z,11.50
2023-04-06T15:43:52.547Z,11.28
2023-04-06T15:46:20.510Z,11.06
2023-04-06T15:48:48.701Z,10.88
2023-04-06T15:51:17.981Z,10.95
2023-04-06T15:53:46.486Z,10.86
2023-04-06T15:56:14.628Z,10.73
2023-04-06T15:58:44.177Z,10.72
2023-04-06T16:01:14.265Z,10.74
2023-04-06T16:03:42.274Z,10.55
2023-04-06T16:06:10.482Z,10.32
2023-04-06T16:08:38.453Z,10.48
2023-04-06T16:11:06.586Z,10.40
2023-04-06T16:13:34.556Z,10.42
2023-04-06T16:16:04.212Z,10.52
2023-04-06T16:18:34.114Z,10.44
2023-04-06T16:21:03.794Z,10.48
2023-04-06T16:23:31.678Z,10.42
2023-04-06T16:25:59.692Z,10.37
2023-04-06T16:28:27.630Z,10.36
2023-04-06T16:30:55.606Z,10.27
2023-04-06T16:33:24.961Z,10.30
2023-04-06T16:35:53.049Z,10.21
2023-04-06T16:38:22.874Z,10.13
2023-04-06T16:40:50.836Z,10.18
2023-04-06T16:43:18.799Z,10.08
2023-04-06T16:45:52.051Z,10.01
2023-04-06T16:48:20.091Z,9.98
2023-04-06T16:50:49.449Z,9.99
2023-04-06T16:53:17.411Z,9.91
2023-04-06T16:55:45.500Z,9.95
2023-04-06T16:58:13.404Z,9.92
2023-04-06T17:00:41.322Z,9.81
2023-04-06T17:03:09.379Z,9.89
2023-04-06T17:05:37.427Z,9.62
2023-04-06T17:08:06.889Z,9.67
2023-04-06T17:10:41.495Z,9.66
2023-04-06T17:13:14.907Z,9.62
2023-04-06T17:15:43.415Z,9.57
2023-04-06T17:18:11.672Z,9.67
2023-04-06T17:20:39.715Z,9.64
2023-04-06T17:23:09.031Z,9.49
2023-04-06T17:25:37.616Z,9.46
2023-04-06T17:28:05.527Z,9.47
2023-04-06T17:30:34.540Z,9.39
2023-04-06T17:33:02.976Z,9.42
2023-04-06T17:35:30.967Z,9.29
2023-04-06T17:37:58.863Z,9.39
2023-04-06T17:40:28.183Z,9.27
2023-04-06T17:42:56.116Z,9.23
2023-04-06T17:45:24.060Z,9.22
2023-04-06T17:47:52.076Z,9.08
2023-04-06T17:50:20.095Z,9.00
2023-04-06T17:52:49.774Z,8.98
2023-04-06T17:55:18.118Z,8.99
2023-04-06T17:57:47.418Z,8.95
2023-04-06T18:00:16.730Z,8.94
2023-04-06T18:02:44.859Z,8.88
2023-04-06T18:05:12.994Z,8.89
2023-04-06T18:07:40.930Z,8.91
2023-04-06T18:10:09.942Z,8.82
2023-04-06T18:12:37.906Z,8.89
2023-04-06T18:15:08.456Z,8.79
2023-04-06T18:17:36.516Z,8.84
2023-04-06T18:20:04.524Z,8.83
2023-04-06T18:22:34.294Z,8.80
2023-04-06T18:25:02.432Z,8.70
2023-04-06T18:27:30.402Z,8.76
2023-04-06T18:29:59.857Z,8.81
2023-04-06T18:32:30.646Z,8.78
2023-04-06T18:34:58.745Z,8.78
2023-04-06T18:37:26.697Z,8.79
2023-04-06T18:39:54.750Z,8.77
2023-04-06T18:42:22.697Z,8.70
2023-04-06T18:44:50.635Z,8.57
2023-04-06T18:47:18.656Z,8.62
2023-04-06T18:49:48.047Z,8.66
2023-04-06T18:52:16.032Z,8.62
2023-04-06T18:54:43.997Z,8.65
2023-04-06T18:57:11.968Z,8.62
2023-04-06T18:59:39.945Z,8.52
2023-04-06T19:02:07.935Z,8.51
2023-04-06T19:04:36.241Z,8.58
2023-04-06T19:07:06.436Z,8.52
2023-04-06T19:09:34.390Z,8.50
2023-04-06T19:12:02.395Z,8.55
2023-04-06T19:14:32.649Z,8.46
2023-04-06T19:17:00.857Z,8.47
2023-04-06T19:19:28.891Z,8.38
2023-04-06T19:21:58.809Z,8.41
2023-04-06T19:24:28.177Z,8.41
2023-04-06T19:26:57.164Z,8.46
2023-04-06T19:29:25.129Z,8.39
2023-04-06T19:31:53.091Z,8.47
2023-04-06T19:34:21.101Z,8.55
2023-04-06T19:36:49.088Z,8.48
2023-04-06T19:39:18.066Z,8.42
2023-04-06T19:41:47.442Z,8.46
2023-04-06T19:44:15.414Z,8.44
2023-04-06T19:46:46.378Z,8.48
2023-04-06T19:49:14.392Z,8.45
2023-04-06T19:51:42.366Z,8.44
2023-04-06T19:54:10.337Z,8.41
2023-04-06T19:56:39.628Z,8.39
2023-04-06T19:59:11.026Z,8.45
2023-04-06T20:01:39.099Z,8.41
2023-04-06T20:04:07.885Z,8.45
2023-04-06T20:06:36.037Z,8.42
2023-04-06T20:09:03.965Z,8.43
2023-04-06T20:11:32.059Z,8.46
2023-04-06T20:13:59.980Z,8.50
2023-04-06T20:16:29.333Z,8.44
2023-04-06T20:18:57.327Z,8.43
2023-04-06T20:21:25.942Z,8.41
2023-04-06T20:23:53.931Z,8.32
2023-04-06T20:26:22.577Z,8.26
2023-04-06T20:28:50.535Z,8.21
2023-04-06T20:31:18.486Z,8.21
2023-04-06T20:33:47.845Z,8.13
2023-04-06T20:36:15.784Z,8.22
2023-04-06T20:38:43.776Z,8.24
2023-04-06T20:41:11.689Z,8.23
2023-04-06T20:43:39.620Z,8.13
2023-04-06T20:46:07.713Z,8.06
2023-04-06T20:48:38.140Z,8.08
2023-04-06T20:51:07.524Z,8.06
2023-04-06T20:53:35.488Z,7.98
2023-04-06T20:56:03.617Z,7.98
2023-04-06T20:58:31.840Z,8.02
2023-04-06T21:00:59.781Z,8.04
2023-04-06T21:03:27.901Z,8.10
2023-04-06T21:05:57.332Z,8.09
2023-04-06T21:08:26.769Z,7.96
2023-04-06T21:10:54.759Z,7.89
2023-04-06T21:13:22.734Z,7.89
2023-04-06T21:15:51.773Z,7.85
2023-04-06T21:18:19.842Z,7.80
2023-04-06T21:20:47.870Z,7.76
2023-04-06T21:23:16.240Z,7.79
2023-04-06T21:25:45.669Z,7.78
2023-04-06T21:28:13.682Z,7.82
2023-04-06T21:30:42.411Z,7.79
2023-04-06T21:33:11.448Z,7.88
2023-04-06T21:35:39.807Z,7.81
2023-04-06T21:38:07.761Z,7.90
2023-04-06T21:40:35.810Z,7.93
2023-04-06T21:43:05.169Z,7.80
2023-04-06T21:45:33.174Z,7.81
2023-04-06T21:48:01.291Z,7.76
2023-04-06T21:50:29.336Z,7.77
2023-04-06T21:52:57.288Z,7.77
2023-04-06T21:55:25.263Z,7.76
2023-04-06T21:57:53.261Z,7.67
2023-04-06T22:00:22.904Z,7.69
2023-04-06T22:02:51.059Z,7.71
2023-04-06T22:05:19.360Z,7.68
2023-04-06T22:07:47.438Z,7.64
2023-04-06T22:10:15.508Z,7.66
2023-04-06T22:12:43.460Z,7.63
2023-04-06T22:15:13.118Z,7.68
2023-04-06T22:17:42.503Z,7.78
2023-04-06T22:20:10.836Z,7.69
2023-04-06T22:22:38.777Z,7.69
2023-04-06T22:25:07.707Z,7.68
2023-04-06T22:27:35.698Z,7.63
2023-04-06T22:30:03.801Z,7.70
2023-04-06T22:32:31.794Z,7.73
2023-04-06T22:35:01.101Z,7.71
2023-04-06T22:37:29.055Z,7.74
2023-04-06T22:39:57.066Z,7.68
2023-04-06T22:42:25.095Z,7.58
2023-04-06T22:44:53.055Z,7.56
2023-04-06T22:47:21.203Z,7.64
2023-04-06T22:49:49.195Z,7.67
2023-04-06T22:52:18.541Z,7.64
2023-04-06T22:54:46.540Z,7.54
2023-04-06T22:57:14.511Z,7.63
2023-04-06T22:59:42.426Z,7.66
2023-04-06T23:02:10.758Z,7.68
2023-04-06T23:04:38.832Z,7.68
2023-04-06T23:07:07.493Z,7.71
2023-04-06T23:09:36.771Z,7.66
2023-04-06T23:12:04.884Z,7.48
2023-04-06T23:14:33.138Z,7.53
2023-04-06T23:17:01.128Z,7.62
2023-04-06T23:19:29.076Z,7.64
2023-04-06T23:21:57.043Z,7.62
2023-04-06T23:24:24.983Z,7.54
2023-04-06T23:26:54.611Z,7.54
2023-04-06T23:29:22.594Z,7.57
2023-04-06T23:31:50.554Z,7.57
2023-04-06T23:34:18.510Z,7.59
2023-04-06T23:36:46.528Z,7.52
2023-04-06T23:39:14.464Z,7.48
2023-04-06T23:41:43.134Z,7.52
2023-04-06T23:44:12.487Z,7.49
2023-04-06T23:46:40.603Z,7.47
2023-04-06T23:49:08.560Z,7.45
2023-04-06T23:51:36.656Z,7.48
2023-04-06T23:54:04.981Z,7.45
2023-04-06T23:56:32.927Z,7.46
2023-04-06T23:59:01.165Z,7.43
